Time;durP1;ratioP1;P1;durP2;ratioP2;P2;SDS_P1;SDS_P2;PMS_P1;PMS_P2;Temp;Humidity;BMP_temperature;BMP_pressure;BME280_temperature;BME280_humidity;BME280_pressure;Samples;Min_cycle;Max_cycle;Signal;HPM_P1;HPM_P2
2023/12/14 00:01:51;;;;;;;13.45;7.95;;;;;;;6.10;100.00;98791.47;5094660;28;20509;-42
2023/12/14 00:04:20;;;;;;;13.10;8.13;;;;;;;6.08;100.00;98798.66;5094351;28;20138;-42
2023/12/14 00:06:49;;;;;;;13.95;7.65;;;;;;;5.99;100.00;98799.25;5094390;28;20044;-42
2023/12/14 00:09:18;;;;;;;10.95;6.65;;;;;;;5.79;100.00;98789.03;5093866;28;20048;-41
2023/12/14 00:11:47;;;;;;;11.07;6.85;;;;;;;5.73;100.00;98783.22;5094395;28;20044;-41
2023/12/14 00:14:15;;;;;;;11.55;6.93;;;;;;;5.58;100.00;98785.97;5105219;28;20044;-41
2023/12/14 00:16:43;;;;;;;10.23;6.70;;;;;;;5.59;100.00;98782.38;5114380;28;20522;-42
2023/12/14 00:19:12;;;;;;;12.15;7.57;;;;;;;5.55;100.00;98792.31;5114456;28;20152;-41
2023/12/14 00:21:40;;;;;;;12.68;7.95;;;;;;;5.65;100.00;98792.56;5113969;28;20450;-41
2023/12/14 00:24:08;;;;;;;13.60;8.35;;;;;;;5.61;100.00;98793.72;5113838;28;20052;-40
2023/12/14 00:26:38;;;;;;;13.63;8.38;;;;;;;5.70;100.00;98801.94;5113728;27;20445;-41
2023/12/14 00:29:07;;;;;;;13.43;8.18;;;;;;;5.69;100.00;98808.16;5114107;28;20097;-41
2023/12/14 00:31:35;;;;;;;14.60;8.70;;;;;;;5.75;100.00;98813.06;5114294;28;20504;-41
2023/12/14 00:34:03;;;;;;;13.23;8.23;;;;;;;5.84;100.00;98824.84;5113931;28;20122;-41
2023/12/14 00:36:32;;;;;;;14.32;8.38;;;;;;;5.92;100.00;98832.34;5113906;27;20140;-40
2023/12/14 00:39:00;;;;;;;15.00;8.23;;;;;;;5.83;100.00;98838.19;5113794;28;20086;-41
2023/12/14 00:41:29;;;;;;;14.80;8.65;;;;;;;5.87;100.00;98845.81;5113959;28;20047;-41
2023/12/14 00:43:58;;;;;;;15.63;9.30;;;;;;;5.97;100.00;98856.72;5113988;28;20051;-42
2023/12/14 00:46:26;;;;;;;14.70;8.75;;;;;;;5.83;100.00;98865.50;5103248;28;20067;-41
2023/12/14 00:48:54;;;;;;;16.05;9.48;;;;;;;5.79;100.00;98876.34;5093189;28;20048;-40
2023/12/14 00:51:23;;;;;;;18.08;10.20;;;;;;;5.88;100.00;98881.06;5093277;28;20149;-40
2023/12/14 00:53:51;;;;;;;13.88;8.32;;;;;;;5.77;100.00;98887.03;5093023;28;20052;-40
2023/12/14 00:56:19;;;;;;;17.33;9.57;;;;;;;5.88;100.00;98886.38;5092815;28;20048;-41
2023/12/14 00:58:49;;;;;;;16.17;8.75;;;;;;;5.83;100.00;98901.69;5092757;28;20131;-40
2023/12/14 01:01:19;;;;;;;13.10;8.10;;;;;;;5.86;100.00;98912.09;5092762;28;20074;-40
2023/12/14 01:03:47;;;;;;;13.77;8.20;;;;;;;6.04;100.00;98921.56;5092464;28;20195;-42
2023/12/14 01:06:16;;;;;;;13.00;7.82;;;;;;;6.03;100.00;98919.84;5092356;28;20055;-41
2023/12/14 01:08:44;;;;;;;12.82;7.50;;;;;;;6.03;100.00;98919.84;5091464;28;20489;-43
2023/12/14 01:11:13;;;;;;;13.00;7.53;;;;;;;6.07;100.00;98921.34;5092642;28;20041;-41
2023/12/14 01:13:41;;;;;;;12.80;8.10;;;;;;;6.18;100.00;98918.91;5092581;28;20086;-41
2023/12/14 01:16:09;;;;;;;13.35;7.90;;;;;;;6.19;100.00;98915.31;5092383;28;20401;-41
2023/12/14 01:18:39;;;;;;;14.90;8.40;;;;;;;6.10;100.00;98900.00;5092683;28;20093;-39
2023/12/14 01:21:07;;;;;;;14.93;8.48;;;;;;;6.03;100.00;98886.28;5092569;28;20052;-42
2023/12/14 01:23:36;;;;;;;15.00;9.25;;;;;;;6.01;100.00;98879.41;5092314;28;20044;-41
2023/12/14 01:26:04;;;;;;;15.60;9.60;;;;;;;6.00;100.00;98864.47;5092135;28;20052;-42
2023/12/14 01:28:33;;;;;;;16.92;8.82;;;;;;;5.97;100.00;98854.06;5101165;28;20514;-41
2023/12/14 01:31:01;;;;;;;16.20;9.57;;;;;;;6.10;100.00;98851.50;5095745;28;20048;-41
2023/12/14 01:33:30;;;;;;;17.27;10.27;;;;;;;6.01;100.00;98845.00;5092469;28;20081;-40
2023/12/14 01:35:59;;;;;;;17.77;9.52;;;;;;;6.01;100.00;98839.69;5090645;28;20584;-41
2023/12/14 01:38:28;;;;;;;16.65;9.15;;;;;;;6.02;100.00;98841.41;5092027;28;20097;-41
2023/12/14 01:40:56;;;;;;;17.95;10.05;;;;;;;5.82;100.00;98839.13;5096577;28;20042;-42
2023/12/14 01:43:25;;;;;;;22.60;10.57;;;;;;;5.72;100.00;98845.00;5112238;28;20071;-41
2023/12/14 01:45:53;;;;;;;23.15;11.20;;;;;;;5.88;100.00;98850.16;5112699;28;20063;-41
2023/12/14 01:48:21;;;;;;;21.08;10.55;;;;;;;5.80;100.00;98833.09;5112379;28;20044;-42
2023/12/14 01:50:49;;;;;;;21.45;10.70;;;;;;;5.62;100.00;98833.31;5112408;28;20044;-40
2023/12/14 01:53:19;;;;;;;21.67;11.73;;;;;;;5.68;100.00;98835.53;5112359;28;20053;-41
2023/12/14 01:55:48;;;;;;;22.60;11.82;;;;;;;5.60;100.00;98831.72;5112076;28;20071;-41
2023/12/14 01:58:16;;;;;;;22.20;10.90;;;;;;;5.60;100.00;98837.84;5111995;28;20480;-40
2023/12/14 02:00:50;;;;;;;24.35;12.25;;;;;;;5.73;100.00;98837.91;5112232;28;20119;-41
2023/12/14 02:03:18;;;;;;;23.00;12.02;;;;;;;5.68;100.00;98846.13;5112250;28;20047;-41
2023/12/14 02:05:47;;;;;;;21.58;11.27;;;;;;;5.78;100.00;98856.97;5112177;28;20124;-42
2023/12/14 02:08:15;;;;;;;24.63;12.23;;;;;;;5.91;100.00;98878.28;5111848;28;20091;-41
2023/12/14 02:10:45;;;;;;;24.67;12.55;;;;;;;6.01;100.00;98885.53;5096137;28;20143;-41
2023/12/14 02:13:16;;;;;;;25.17;11.75;;;;;;;6.02;100.00;98900.47;5091746;28;20401;-43
2023/12/14 02:15:44;;;;;;;30.08;13.95;;;;;;;5.78;100.00;98887.88;5091451;28;20051;-43
2023/12/14 02:18:13;;;;;;;26.27;13.35;;;;;;;5.69;100.00;98878.72;5091202;28;20080;-40
2023/12/14 02:20:41;;;;;;;31.02;14.13;;;;;;;5.63;100.00;98872.03;5091315;28;20040;-40
2023/12/14 02:23:10;;;;;;;28.38;13.57;;;;;;;5.67;100.00;98870.03;5091295;28;20048;-41
2023/12/14 02:25:39;;;;;;;29.23;14.10;;;;;;;5.60;100.00;98864.28;5091147;28;20474;-41
2023/12/14 02:28:07;;;;;;;25.42;13.43;;;;;;;5.66;100.00;98869.19;5091430;28;20044;-43
2023/12/14 02:30:35;;;;;;;31.10;13.52;;;;;;;5.62;100.00;98864.19;5091475;28;20135;-41
2023/12/14 02:33:04;;;;;;;28.48;14.00;;;;;;;5.57;100.00;98864.47;5091427;28;20055;-40
2023/12/14 02:35:35;;;;;;;28.73;14.65;;;;;;;5.52;100.00;98873.66;5106419;28;20130;-42
2023/12/14 02:38:03;;;;;;;25.75;13.77;;;;;;;5.45;100.00;98870.50;5111611;28;20485;-41
2023/12/14 02:40:33;;;;;;;30.75;14.98;;;;;;;5.58;100.00;98876.75;5111558;28;20048;-40
2023/12/14 02:43:02;;;;;;;29.48;13.98;;;;;;;5.68;100.00;98893.75;5111614;28;20408;-41
2023/12/14 02:45:30;;;;;;;29.40;14.27;;;;;;;5.88;100.00;98910.19;5111450;28;20098;-41
2023/12/14 02:47:58;;;;;;;25.70;13.75;;;;;;;5.81;100.00;98909.72;5096256;28;20051;-41
2023/12/14 02:50:27;;;;;;;29.52;14.40;;;;;;;5.77;100.00;98910.84;5091149;28;20071;-40
2023/12/14 02:52:55;;;;;;;25.58;13.40;;;;;;;5.85;100.00;98898.00;5091298;28;20055;-41
2023/12/14 02:55:24;;;;;;;27.02;13.52;;;;;;;5.88;100.00;98889.84;5091260;28;20056;-43
2023/12/14 02:57:53;;;;;;;26.42;13.75;;;;;;;5.94;100.00;98880.72;5090728;28;20135;-41
2023/12/14 03:00:22;;;;;;;29.25;14.82;;;;;;;5.90;100.00;98871.25;5091178;28;20048;-41
2023/12/14 03:02:50;;;;;;;25.52;13.98;;;;;;;6.03;100.00;98861.63;5098016;28;20048;-41
2023/12/14 03:05:19;;;;;;;29.10;13.65;;;;;;;6.01;100.00;98864.38;5111307;28;20052;-42
2023/12/14 03:07:47;;;;;;;27.63;13.55;;;;;;;5.99;100.00;98871.56;5111201;28;20508;-42
2023/12/14 03:10:15;;;;;;;26.05;13.07;;;;;;;5.88;100.00;98873.97;5111505;28;20048;-41
2023/12/14 03:12:44;;;;;;;28.83;13.23;;;;;;;5.90;100.00;98881.84;5111601;28;20146;-40
2023/12/14 03:15:13;;;;;;;25.48;13.18;;;;;;;5.91;100.00;98894.16;5114235;28;20050;-41
2023/12/14 03:17:42;;;;;;;26.55;13.10;;;;;;;5.87;100.00;98903.19;5114578;28;20569;-41
2023/12/14 03:20:13;;;;;;;23.92;12.93;;;;;;;5.82;100.00;98900.84;5111681;28;20050;-40
2023/12/14 03:22:41;;;;;;;29.58;14.38;;;;;;;5.77;100.00;98902.06;5111315;28;20075;-41
2023/12/14 03:25:10;;;;;;;28.70;14.18;;;;;;;5.69;100.00;98915.75;5110983;28;20043;-41
2023/12/14 03:27:38;;;;;;;31.63;14.55;;;;;;;5.67;100.00;98907.06;5111056;28;20509;-42
2023/12/14 03:30:09;;;;;;;26.48;14.57;;;;;;;5.68;100.00;98919.34;5111015;28;20803;-41
2023/12/14 03:32:40;;;;;;;30.13;13.85;;;;;;;5.86;100.00;98922.66;5114824;28;20496;-41
2023/12/14 03:35:09;;;;;;;31.08;15.07;;;;;;;5.97;100.00;98936.13;5112428;28;20054;-42
2023/12/14 03:37:37;;;;;;;33.40;14.07;;;;;;;6.06;100.00;98940.84;5094551;28;20048;-41
2023/12/14 03:40:07;;;;;;;31.40;15.35;;;;;;;5.96;100.00;98955.59;5094488;28;20043;-41
2023/12/14 03:42:36;;;;;;;31.98;14.55;;;;;;;5.92;100.00;98943.50;5094158;28;20043;-41
2023/12/14 03:45:05;;;;;;;30.10;15.13;;;;;;;5.78;100.00;98964.63;5094089;28;20040;-41
2023/12/14 03:47:34;;;;;;;33.60;14.82;;;;;;;5.61;100.00;98971.81;5093874;28;20525;-41
2023/12/14 03:50:04;;;;;;;31.88;15.13;;;;;;;5.74;100.00;98977.19;5094223;28;20090;-41
2023/12/14 03:52:33;;;;;;;29.55;14.45;;;;;;;5.67;100.00;98979.34;5093941;28;20127;-41
2023/12/14 03:55:02;;;;;;;34.42;16.08;;;;;;;5.62;100.00;98978.78;5094201;28;20140;-41
2023/12/14 03:57:30;;;;;;;31.17;15.57;;;;;;;5.66;100.00;98982.94;5094356;28;20056;-42
2023/12/14 03:59:59;;;;;;;35.15;16.67;;;;;;;5.72;100.00;98979.09;5094362;28;20083;-41
2023/12/14 04:02:27;;;;;;;33.78;18.02;;;;;;;5.82;100.00;98989.97;5094372;28;20075;-41
2023/12/14 04:04:56;;;;;;;38.25;19.30;;;;;;;5.67;100.00;98987.28;5093995;28;20076;-41
2023/12/14 04:07:25;;;;;;;38.47;19.85;;;;;;;5.85;100.00;98984.47;5093911;28;20139;-41
2023/12/14 04:09:54;;;;;;;32.90;16.80;;;;;;;5.83;100.00;98986.38;5098532;28;20589;-41
2023/12/14 04:12:22;;;;;;;54.05;27.33;;;;;;;5.87;100.00;98999.31;5114325;28;20055;-41
2023/12/14 04:14:51;;;;;;;49.38;25.73;;;;;;;5.96;100.00;98997.94;5114046;28;20039;-41
2023/12/14 04:17:19;;;;;;;38.97;19.85;;;;;;;5.87;100.00;98998.47;5114163;28;20062;-41
2023/12/14 04:19:47;;;;;;;38.55;20.70;;;;;;;5.80;100.00;98994.50;5114114;28;20044;-41
2023/12/14 04:22:16;;;;;;;36.65;18.25;;;;;;;5.90;100.00;99003.59;5113722;28;20048;-41
2023/12/14 04:24:45;;;;;;;37.60;17.75;;;;;;;5.74;100.00;98999.22;5113816;28;20050;-41
2023/12/14 04:27:16;;;;;;;32.28;16.33;;;;;;;5.68;100.00;99010.16;5113645;28;20060;-41
2023/12/14 04:29:45;;;;;;;37.13;17.50;;;;;;;5.74;100.00;98998.38;5113969;28;20047;-41
2023/12/14 04:32:13;;;;;;;33.08;16.30;;;;;;;5.77;100.00;99003.47;5113733;28;20074;-40
2023/12/14 04:34:41;;;;;;;33.05;16.35;;;;;;;5.67;100.00;98997.88;5113672;28;20043;-42
2023/12/14 04:37:10;;;;;;;34.20;15.73;;;;;;;5.53;100.00;99000.50;5113673;28;20050;-41
2023/12/14 04:39:38;;;;;;;32.05;16.50;;;;;;;5.42;100.00;99002.94;5113859;28;20073;-41
2023/12/14 04:42:08;;;;;;;32.67;15.10;;;;;;;5.45;100.00;99002.75;5104815;28;20516;-41
2023/12/14 04:44:36;;;;;;;31.45;15.90;;;;;;;5.65;100.00;99010.34;5093086;28;20055;-40
2023/12/14 04:47:05;;;;;;;35.47;16.45;;;;;;;5.70;100.00;99018.88;5092946;28;20056;-41
2023/12/14 04:49:33;;;;;;;34.42;16.13;;;;;;;5.55;100.00;99019.78;5093063;28;20040;-41
2023/12/14 04:52:01;;;;;;;30.67;14.88;;;;;;;5.53;100.00;99019.03;5093227;28;20091;-40
2023/12/14 04:54:30;;;;;;;31.02;15.02;;;;;;;5.34;100.00;99034.25;5092941;28;20079;-41
2023/12/14 04:56:58;;;;;;;36.17;15.80;;;;;;;5.29;100.00;99034.50;5093018;28;20185;-40
2023/12/14 04:59:27;;;;;;;37.08;17.52;;;;;;;5.33;100.00;99027.28;5093424;28;20140;-47
2023/12/14 05:01:56;;;;;;;37.85;16.98;;;;;;;5.40;100.00;99032.13;5093313;28;20040;-41
2023/12/14 05:04:24;;;;;;;37.63;16.95;;;;;;;5.49;100.00;99020.13;5093097;28;20101;-41
2023/12/14 05:06:53;;;;;;;39.63;18.10;;;;;;;5.43;100.00;99036.38;5092940;28;20060;-42
2023/12/14 05:09:22;;;;;;;37.42;17.70;;;;;;;5.57;100.00;99038.19;5098252;28;20055;-41
2023/12/14 05:11:51;;;;;;;39.72;18.25;;;;;;;5.63;100.00;99038.69;5092766;28;20576;-41
2023/12/14 05:14:20;;;;;;;40.47;18.05;;;;;;;5.54;100.00;99044.53;5092959;28;20048;-41
2023/12/14 05:16:52;;;;;;;38.85;18.65;;;;;;;5.42;100.00;99051.38;5092536;28;20137;-41
2023/12/14 05:19:21;;;;;;;39.05;18.23;;;;;;;5.44;100.00;99049.50;5092867;28;20134;-41
2023/12/14 05:21:49;;;;;;;41.05;18.88;;;;;;;5.53;100.00;99050.75;5092290;28;20044;-41
2023/12/14 05:24:17;;;;;;;34.47;17.17;;;;;;;5.34;100.00;99058.06;5092504;28;20048;-41
2023/12/14 05:26:46;;;;;;;39.85;17.83;;;;;;;5.37;100.00;99050.78;5092141;28;20059;-40
2023/12/14 05:29:14;;;;;;;38.67;16.88;;;;;;;5.52;100.00;99067.56;5092072;28;20044;-41
2023/12/14 05:31:42;;;;;;;41.05;18.38;;;;;;;5.54;100.00;99065.69;5109211;28;20048;-41
2023/12/14 05:34:12;;;;;;;37.28;17.83;;;;;;;5.35;100.00;99068.53;5112592;28;20051;-41
2023/12/14 05:36:40;;;;;;;36.80;16.80;;;;;;;5.43;100.00;99068.09;5112540;28;20043;-40
2023/12/14 05:39:09;;;;;;;36.90;16.88;;;;;;;5.33;100.00;99075.72;5112423;28;20044;-40
2023/12/14 05:41:41;;;;;;;35.42;18.00;;;;;;;5.34;100.00;99079.22;5112374;28;20051;-40
2023/12/14 05:44:09;;;;;;;38.33;18.40;;;;;;;5.34;100.00;99079.22;5112636;28;20050;-42
2023/12/14 05:46:38;;;;;;;42.40;18.50;;;;;;;5.45;100.00;99087.38;5113288;28;20051;-45
2023/12/14 05:49:09;;;;;;;43.13;18.77;;;;;;;5.42;100.00;99099.00;5116704;28;20039;-43
2023/12/14 05:51:39;;;;;;;39.55;18.08;;;;;;;5.51;100.00;99107.34;5099110;28;20044;-41
2023/12/14 05:54:07;;;;;;;43.63;19.17;;;;;;;5.31;100.00;99106.69;5091035;28;20055;-41
2023/12/14 05:56:35;;;;;;;40.22;18.85;;;;;;;5.41;100.00;99107.00;5091951;28;20404;-41
2023/12/14 05:59:07;;;;;;;40.88;19.33;;;;;;;5.47;100.00;99117.22;5091748;28;20048;-42
2023/12/14 06:01:36;;;;;;;41.28;19.95;;;;;;;5.32;100.00;99118.97;5091651;28;20044;-42
2023/12/14 06:04:06;;;;;;;41.20;18.75;;;;;;;5.58;100.00;99125.38;5091724;28;20135;-42
2023/12/14 06:06:35;;;;;;;41.10;19.55;;;;;;;5.43;100.00;99131.56;5091517;28;20691;-42
2023/12/14 06:09:06;;;;;;;44.85;21.42;;;;;;;5.59;100.00;99132.38;5091356;28;20489;-42
2023/12/14 06:11:36;;;;;;;43.67;20.23;;;;;;;5.49;100.00;99130.34;5091608;28;20054;-41
2023/12/14 06:14:04;;;;;;;41.53;20.00;;;;;;;5.63;100.00;99139.22;5091648;28;20076;-42
2023/12/14 06:16:33;;;;;;;43.55;20.90;;;;;;;5.38;100.00;99129.19;5091576;28;20055;-41
2023/12/14 06:19:01;;;;;;;41.75;20.20;;;;;;;5.39;100.00;99127.38;5091396;28;20048;-42
2023/12/14 06:21:30;;;;;;;40.08;19.63;;;;;;;5.38;100.00;99128.31;5109394;28;20055;-41
2023/12/14 06:23:59;;;;;;;40.67;19.40;;;;;;;5.37;100.00;99129.28;5112101;28;20074;-41
2023/12/14 06:26:29;;;;;;;43.30;19.55;;;;;;;5.42;100.00;99138.66;5111662;28;20540;-42
2023/12/14 06:28:57;;;;;;;47.35;21.45;;;;;;;5.49;100.00;99147.06;5111544;28;20488;-41
2023/12/14 06:31:26;;;;;;;52.83;24.05;;;;;;;5.32;100.00;99133.97;5111529;28;20051;-40
2023/12/14 06:33:54;;;;;;;54.55;24.73;;;;;;;5.50;100.00;99145.28;5110311;28;20772;-41
2023/12/14 06:36:29;;;;;;;52.97;24.45;;;;;;;5.67;100.00;99137.25;5112104;28;20048;-42
2023/12/14 06:38:58;;;;;;;46.20;22.52;;;;;;;5.63;100.00;99143.66;5112050;28;20126;-41
2023/12/14 06:41:27;;;;;;;46.92;22.40;;;;;;;5.60;100.00;99142.06;5098692;28;20075;-41
2023/12/14 06:43:57;;;;;;;50.67;22.90;;;;;;;5.58;100.00;99137.78;5100018;28;20040;-42
2023/12/14 06:46:26;;;;;;;53.08;23.85;;;;;;;5.57;100.00;99150.13;5093304;28;20577;-41
2023/12/14 06:48:55;;;;;;;45.03;22.50;;;;;;;5.56;100.00;99145.78;5098575;28;20416;-39
2023/12/14 06:51:24;;;;;;;47.03;22.30;;;;;;;5.61;100.00;99154.34;5098430;28;20044;-42
2023/12/14 06:53:52;;;;;;;47.05;22.63;;;;;;;5.74;100.00;99151.81;5090367;28;20052;-42
2023/12/14 06:56:21;;;;;;;41.72;20.55;;;;;;;5.79;100.00;99164.78;5092697;28;20086;-41
2023/12/14 06:58:49;;;;;;;47.10;22.17;;;;;;;5.63;100.00;99164.81;5098765;28;20124;-40
2023/12/14 07:01:19;;;;;;;43.25;20.85;;;;;;;5.77;100.00;99177.25;5098321;28;20040;-43
2023/12/14 07:03:48;;;;;;;43.47;21.70;;;;;;;5.81;100.00;99184.09;5097134;28;20047;-40
2023/12/14 07:06:18;;;;;;;42.83;21.45;;;;;;;5.60;100.00;99187.03;5098612;28;20342;-41
2023/12/14 07:08:47;;;;;;;40.85;20.63;;;;;;;5.70;100.00;99188.22;5104532;28;20056;-41
2023/12/14 07:11:17;;;;;;;39.30;20.50;;;;;;;5.81;100.00;99192.03;5103331;28;20051;-40
2023/12/14 07:13:45;;;;;;;38.33;19.40;;;;;;;5.65;100.00;99195.53;5097834;28;20152;-41
2023/12/14 07:16:14;;;;;;;40.13;19.35;;;;;;;5.86;100.00;99193.44;5093052;28;20048;-40
2023/12/14 07:18:45;;;;;;;36.60;19.23;;;;;;;5.91;100.00;99201.19;5094704;28;20405;-42
2023/12/14 07:21:14;;;;;;;36.35;18.73;;;;;;;5.55;100.00;99204.94;5094110;28;20051;-40
2023/12/14 07:23:42;;;;;;;38.03;20.52;;;;;;;5.83;100.00;99208.66;5093982;28;20048;-41
2023/12/14 07:26:11;;;;;;;38.63;19.70;;;;;;;5.74;100.00;99213.53;5092301;28;20493;-39
2023/12/14 07:28:39;;;;;;;36.30;19.05;;;;;;;5.82;100.00;99222.84;5093923;28;20054;-40
2023/12/14 07:31:07;;;;;;;36.50;18.98;;;;;;;5.80;100.00;99217.63;5093579;28;20105;-41
2023/12/14 07:33:36;;;;;;;37.78;18.48;;;;;;;5.91;100.00;99230.28;5097362;28;20504;-41
2023/12/14 07:36:06;;;;;;;39.40;19.35;;;;;;;6.07;100.00;99227.59;5099669;28;20044;-41
2023/12/14 07:38:34;;;;;;;37.88;19.05;;;;;;;5.96;100.00;99236.16;5114393;28;20048;-41
2023/12/14 07:41:04;;;;;;;36.65;18.98;;;;;;;6.02;100.00;99236.66;5107107;27;20059;-41
2023/12/14 07:43:32;;;;;;;36.03;18.08;;;;;;;6.17;100.00;99237.56;5093944;28;20055;-39
2023/12/14 07:46:00;;;;;;;34.70;18.77;;;;;;;6.09;100.00;99247.75;5099599;28;20052;-41
2023/12/14 07:48:29;;;;;;;35.30;19.70;;;;;;;6.00;100.00;99243.84;5093390;28;20473;-41
2023/12/14 07:50:58;;;;;;;38.50;19.98;;;;;;;5.97;100.00;99249.28;5094230;28;20447;-41
2023/12/14 07:53:27;;;;;;;36.78;19.50;;;;;;;5.82;100.00;99254.59;5099299;28;20127;-42
2023/12/14 07:55:56;;;;;;;35.97;18.63;;;;;;;5.98;100.00;99258.97;5095484;28;20142;-41
2023/12/14 07:58:25;;;;;;;38.13;19.67;;;;;;;6.07;100.00;99260.22;5094511;28;20071;-40
2023/12/14 08:00:54;;;;;;;42.05;21.50;;;;;;;5.88;100.00;99257.72;5094960;28;20454;-41
2023/12/14 08:03:22;;;;;;;42.72;22.10;;;;;;;5.90;100.00;99263.84;5095831;28;20047;-41
2023/12/14 08:05:51;;;;;;;41.47;21.75;;;;;;;6.02;100.00;99270.22;5092107;28;20059;-40
2023/12/14 08:08:19;;;;;;;39.80;20.58;;;;;;;6.08;100.00;99271.66;5091846;28;20050;-40
2023/12/14 08:10:49;;;;;;;38.95;19.90;;;;;;;6.11;100.00;99268.84;5091534;28;20048;-40
2023/12/14 08:13:18;;;;;;;38.15;20.40;;;;;;;6.11;100.00;99276.78;5092380;28;20127;-40
2023/12/14 08:15:46;;;;;;;40.92;19.98;;;;;;;6.13;100.00;99281.06;5090334;28;20048;-40
2023/12/14 08:18:15;;;;;;;36.33;19.90;;;;;;;6.07;100.00;99276.09;5091379;28;20131;-39
2023/12/14 08:20:43;;;;;;;41.38;20.15;;;;;;;6.19;100.00;99282.50;5092044;28;20040;-40
2023/12/14 08:23:11;;;;;;;37.15;19.15;;;;;;;6.15;100.00;99288.91;5093289;28;20047;-40
2023/12/14 08:25:40;;;;;;;33.70;19.10;;;;;;;6.18;100.00;99283.47;5091271;28;20143;-40
2023/12/14 08:28:10;;;;;;;38.33;19.58;;;;;;;6.22;100.00;99299.06;5091575;28;20086;-41
2023/12/14 08:30:39;;;;;;;38.60;19.52;;;;;;;6.16;100.00;99296.75;5092756;28;20128;-40
2023/12/14 08:33:07;;;;;;;35.33;19.55;;;;;;;6.40;100.00;99304.25;5092985;28;20044;-41
2023/12/14 08:35:36;;;;;;;34.30;18.50;;;;;;;6.42;100.00;99300.56;5091246;28;20222;-40
2023/12/14 08:38:04;;;;;;;37.38;19.17;;;;;;;6.25;100.00;99301.53;5092936;28;20040;-42
2023/12/14 08:40:32;;;;;;;33.15;17.95;;;;;;;6.40;100.00;99305.09;5092751;28;20079;-39
2023/12/14 08:43:01;;;;;;;36.83;19.73;;;;;;;6.10;100.00;99307.72;5092550;28;20481;-40
2023/12/14 08:45:30;;;;;;;33.33;17.60;;;;;;;6.10;100.00;99315.66;5091067;28;20044;-41
2023/12/14 08:48:01;;;;;;;33.53;18.50;;;;;;;6.12;100.00;99313.78;5092636;28;20448;-40
2023/12/14 08:50:29;;;;;;;35.67;18.70;;;;;;;6.11;100.00;99311.22;5092318;28;20191;-40
2023/12/14 08:52:58;;;;;;;33.72;18.30;;;;;;;6.12;100.00;99316.41;5092587;28;20493;-40
2023/12/14 08:55:27;;;;;;;34.30;18.08;;;;;;;6.07;100.00;99315.81;5090899;28;20048;-41
2023/12/14 08:57:56;;;;;;;33.38;18.75;;;;;;;6.16;100.00;99325.03;5092721;28;20135;-41
2023/12/14 09:00:24;;;;;;;32.75;17.58;;;;;;;6.22;100.00;99322.91;5092261;28;20040;-41
2023/12/14 09:02:57;;;;;;;35.15;19.10;;;;;;;6.23;100.00;99323.75;5092398;28;20048;-41
2023/12/14 09:05:26;;;;;;;34.47;18.63;;;;;;;6.10;100.00;99328.03;5091069;28;20044;-45
2023/12/14 09:07:56;;;;;;;35.65;18.70;;;;;;;6.18;100.00;99331.97;5092586;28;20442;-41
2023/12/14 09:10:25;;;;;;;31.23;17.48;;;;;;;6.27;100.00;99336.75;5092499;28;20531;-42
2023/12/14 09:12:53;;;;;;;31.88;18.10;;;;;;;6.35;100.00;99344.22;5092062;28;20151;-40
2023/12/14 09:15:21;;;;;;;32.33;18.17;;;;;;;6.23;100.00;99345.78;5090446;28;20131;-40
2023/12/14 09:17:50;;;;;;;34.45;18.38;;;;;;;6.39;100.00;99344.94;5092318;28;20043;-41
2023/12/14 09:20:21;;;;;;;34.85;18.35;;;;;;;6.36;100.00;99345.06;5091828;28;20150;-39
2023/12/14 09:22:49;;;;;;;36.15;18.15;;;;;;;6.48;100.00;99344.41;5091576;28;20497;-41
2023/12/14 09:25:18;;;;;;;30.95;18.33;;;;;;;6.51;100.00;99344.22;5089909;28;20056;-41
2023/12/14 09:27:46;;;;;;;29.92;17.05;;;;;;;6.46;100.00;99351.56;5091262;28;20127;-41
2023/12/14 09:30:17;;;;;;;35.03;18.45;;;;;;;6.54;100.00;99350.19;5091306;28;20139;-41
2023/12/14 09:32:45;;;;;;;33.95;17.73;;;;;;;6.60;100.00;99359.56;5091423;28;20040;-42
2023/12/14 09:35:14;;;;;;;34.45;18.00;;;;;;;6.68;100.00;99367.09;5090074;28;20155;-40
2023/12/14 09:37:44;;;;;;;33.78;17.85;;;;;;;6.73;100.00;99363.22;5091770;28;20105;-41
2023/12/14 09:40:12;;;;;;;32.83;17.73;;;;;;;6.95;100.00;99365.47;5091741;28;20123;-42
2023/12/14 09:42:40;;;;;;;28.58;17.50;;;;;;;7.02;100.00;99368.59;5091675;28;20048;-42
2023/12/14 09:45:10;;;;;;;32.13;17.13;;;;;;;6.91;100.00;99373.69;5091268;28;20051;-41
2023/12/14 09:47:39;;;;;;;28.95;16.92;;;;;;;6.87;100.00;99373.88;5091004;28;20481;-40
2023/12/14 09:50:09;;;;;;;29.20;17.38;;;;;;;7.05;100.00;99371.94;5091120;28;20044;-41
2023/12/14 09:52:38;;;;;;;29.08;16.25;;;;;;;7.11;100.00;99370.69;5090631;28;20447;-42
2023/12/14 09:55:08;;;;;;;28.58;17.50;;;;;;;6.99;100.00;99371.44;5091920;28;20043;-40
2023/12/14 09:57:36;;;;;;;31.30;17.23;;;;;;;7.23;100.00;99369.94;5092134;28;20043;-42
2023/12/14 10:00:10;;;;;;;29.42;16.60;;;;;;;7.33;100.00;99378.19;5091934;28;20135;-41
2023/12/14 10:02:38;;;;;;;;;;;;;;;7.32;100.00;99379.16;5092294;28;20040;-42
2023/12/14 10:05:10;;;;;;;29.17;16.00;;;;;;;7.30;100.00;99378.41;5091369;28;19920;-41
2023/12/14 10:07:43;;;;;;;29.43;16.27;;;;;;;7.53;100.00;99387.59;5092196;28;20409;-41
2023/12/14 10:10:15;;;;;;;29.75;16.52;;;;;;;7.57;100.00;99390.00;5091422;28;20121;-42
2023/12/14 10:12:54;;;;;;;25.70;15.45;;;;;;;7.53;100.00;99400.88;5091496;28;20135;-44
2023/12/14 10:15:23;;;;;;;28.75;16.33;;;;;;;7.64;100.00;99395.78;5091561;28;20044;-43
2023/12/14 10:17:54;;;;;;;29.08;16.17;;;;;;;7.73;100.00;99389.91;5091478;28;20052;-43
2023/12/14 10:20:26;;;;;;;28.23;16.17;;;;;;;7.72;100.00;99404.09;5091660;28;20047;-41
2023/12/14 10:22:55;;;;;;;28.83;15.95;;;;;;;7.84;100.00;99403.38;5091509;28;20197;-42
2023/12/14 10:25:26;;;;;;;25.38;15.30;;;;;;;7.92;100.00;99403.75;5091180;28;20247;-43
2023/12/14 10:27:54;;;;;;;28.38;15.60;;;;;;;7.76;100.00;99408.28;5092484;28;20075;-43
2023/12/14 10:30:22;;;;;;;27.08;15.27;;;;;;;7.85;100.00;99413.03;5091290;28;20048;-42
2023/12/14 10:32:51;;;;;;;24.67;13.98;;;;;;;7.90;100.00;99413.59;5091333;28;20050;-42
2023/12/14 10:35:21;;;;;;;27.27;14.88;;;;;;;7.84;100.00;99418.44;5091275;28;20086;-41
2023/12/14 10:37:52;;;;;;;23.67;14.10;;;;;;;7.69;100.00;99417.56;5091187;28;20131;-42
2023/12/14 10:40:21;;;;;;;24.33;14.20;;;;;;;7.67;100.00;99411.50;5095188;28;20044;-42
2023/12/14 10:42:52;;;;;;;26.58;15.15;;;;;;;7.67;100.00;99428.28;5098226;28;20397;-41
2023/12/14 10:45:24;;;;;;;22.08;14.27;;;;;;;7.72;100.00;99420.91;5096706;28;20049;-41
2023/12/14 10:47:54;;;;;;;23.40;14.95;;;;;;;7.73;100.00;99427.06;5098161;28;20047;-41
2023/12/14 10:50:24;;;;;;;25.77;14.95;;;;;;;7.71;100.00;99428.94;5097619;28;20062;-42
2023/12/14 10:52:52;;;;;;;24.83;14.95;;;;;;;7.69;100.00;99436.16;5097688;28;20048;-43
2023/12/14 10:55:26;;;;;;;26.20;15.25;;;;;;;7.72;100.00;99434.19;5097537;28;20048;-41
2023/12/14 10:57:55;;;;;;;32.58;15.35;;;;;;;7.84;100.00;99429.06;5097777;28;20044;-41
2023/12/14 11:00:24;;;;;;;25.75;15.07;;;;;;;7.79;100.00;99439.94;5097698;28;20044;-44
2023/12/14 11:02:53;;;;;;;24.88;14.75;;;;;;;7.82;100.00;99447.75;5097478;28;20055;-42
2023/12/14 11:05:29;;;;;;;28.83;15.40;;;;;;;7.95;100.00;99442.53;5097592;28;20048;-42
2023/12/14 11:08:03;;;;;;;27.38;15.48;;;;;;;7.85;100.00;99447.53;5097599;28;20135;-42
2023/12/14 11:10:38;;;;;;;26.45;15.23;;;;;;;7.61;100.00;99451.69;5097342;28;20052;-42
2023/12/14 11:13:13;;;;;;;26.67;15.30;;;;;;;7.78;100.00;99445.34;5097570;28;20101;-43
2023/12/14 11:15:50;;;;;;;29.08;16.38;;;;;;;7.54;100.00;99450.38;5097456;28;20044;-42
2023/12/14 11:18:26;;;;;;;25.15;15.73;;;;;;;7.44;100.00;99450.06;5097215;28;20052;-42
2023/12/14 11:20:57;;;;;;;25.33;15.05;;;;;;;7.59;100.00;99453.59;5097435;28;20105;-45
2023/12/14 11:23:38;;;;;;;25.45;14.90;;;;;;;7.70;100.00;99448.47;5097515;28;20048;-41
2023/12/14 11:26:10;;;;;;;28.27;16.73;;;;;;;7.66;100.00;99446.97;5097497;28;20052;-41
2023/12/14 11:28:43;;;;;;;27.27;16.55;;;;;;;7.57;100.00;99455.47;5097332;28;20052;-41